createdAt,value
2023-03-22T00:02:46.051Z,6.20
2023-03-22T00:05:59.677Z,6.20
2023-03-22T00:09:08.010Z,6.20
2023-03-22T00:12:16.269Z,6.30
2023-03-22T00:15:24.958Z,6.40
2023-03-22T00:18:33.531Z,6.40
2023-03-22T00:21:43.241Z,6.50
2023-03-22T00:24:51.584Z,6.50
2023-03-22T00:27:59.911Z,6.50
2023-03-22T00:31:09.174Z,6.50
2023-03-22T00:34:17.666Z,6.50
2023-03-22T00:37:34.008Z,6.50
2023-03-22T00:40:42.891Z,6.50
2023-03-22T00:43:52.242Z,6.60
2023-03-22T00:47:00.678Z,6.70
2023-03-22T00:50:09.928Z,6.70
2023-03-22T00:53:19.817Z,6.70
2023-03-22T00:56:28.927Z,6.70
2023-03-22T00:59:43.251Z,6.70
2023-03-22T01:02:53.778Z,6.60
2023-03-22T01:06:03.680Z,6.60
2023-03-22T01:09:14.993Z,6.60
2023-03-22T01:12:23.442Z,6.60
2023-03-22T01:15:32.078Z,6.70
2023-03-22T01:18:40.809Z,6.80
2023-03-22T01:21:50.046Z,6.90
2023-03-22T01:24:59.843Z,7.00
2023-03-22T01:28:08.765Z,7.00
2023-03-22T01:31:17.271Z,7.10
2023-03-22T01:34:26.605Z,7.20
2023-03-22T01:37:36.616Z,7.20
2023-03-22T01:40:46.694Z,7.20
2023-03-22T01:44:12.676Z,7.20
2023-03-22T01:47:21.399Z,7.30
2023-03-22T01:50:31.271Z,7.30
2023-03-22T01:53:44.088Z,7.30
2023-03-22T01:56:54.125Z,7.20
2023-03-22T02:00:15.478Z,7.10
2023-03-22T02:03:49.832Z,6.90
2023-03-22T02:07:00.704Z,6.60
2023-03-22T02:10:13.831Z,6.50
2023-03-22T02:13:56.162Z,6.50
2023-03-22T02:17:32.058Z,6.50
2023-03-22T02:21:16.036Z,6.50
2023-03-22T02:25:01.937Z,6.50
2023-03-22T02:28:18.789Z,6.60
2023-03-22T02:31:51.080Z,6.80
2023-03-22T02:35:34.788Z,6.90
2023-03-22T02:39:16.776Z,7.00
2023-03-22T02:42:37.060Z,7.00
2023-03-22T02:45:51.229Z,7.00
2023-03-22T02:49:07.891Z,7.10
2023-03-22T02:52:20.965Z,7.10
2023-03-22T02:55:34.881Z,7.10
2023-03-22T02:58:47.626Z,7.10
2023-03-22T03:01:58.447Z,7.20
2023-03-22T03:05:08.301Z,7.20
2023-03-22T03:08:19.108Z,7.10
2023-03-22T03:11:32.026Z,7.00
2023-03-22T03:14:40.949Z,6.70
2023-03-22T03:18:13.785Z,6.60
2023-03-22T03:21:34.843Z,6.60
2023-03-22T03:24:50.205Z,6.50
2023-03-22T03:28:10.094Z,6.50
2023-03-22T03:31:27.702Z,6.50
2023-03-22T03:34:42.579Z,6.50
2023-03-22T03:37:53.851Z,6.50
2023-03-22T03:41:05.687Z,6.40
2023-03-22T03:44:17.631Z,6.40
2023-03-22T03:47:29.715Z,6.40
2023-03-22T03:50:38.192Z,6.40
2023-03-22T03:53:47.191Z,6.40
2023-03-22T03:56:56.098Z,6.40
2023-03-22T04:00:07.105Z,6.30
2023-03-22T04:03:33.770Z,6.30
2023-03-22T04:06:44.994Z,6.30
2023-03-22T04:09:58.404Z,6.20
2023-03-22T04:13:11.771Z,6.10
2023-03-22T04:16:21.787Z,6.10
2023-03-22T04:19:30.988Z,6.10
2023-03-22T04:22:39.904Z,6.20
2023-03-22T04:25:50.271Z,6.10
2023-03-22T04:29:05.655Z,6.10
2023-03-22T04:32:18.936Z,6.10
2023-03-22T04:35:27.573Z,6.10
2023-03-22T04:38:37.393Z,6.10
2023-03-22T04:41:45.832Z,6.10
2023-03-22T04:44:54.247Z,6.10
2023-03-22T04:48:04.147Z,6.10
2023-03-22T04:51:14.242Z,6.10
2023-03-22T04:54:32.620Z,6.20
2023-03-22T04:57:40.989Z,6.30
2023-03-22T05:00:49.415Z,6.30
2023-03-22T05:03:59.202Z,6.40
2023-03-22T05:07:08.253Z,6.50
2023-03-22T05:10:25.036Z,6.50
2023-03-22T05:13:34.078Z,6.70
2023-03-22T05:16:42.705Z,6.70
2023-03-22T05:19:52.377Z,6.50
2023-03-22T05:23:02.623Z,6.60
2023-03-22T05:26:16.095Z,6.70
2023-03-22T05:29:24.974Z,6.90
2023-03-22T05:32:49.608Z,7.00
2023-03-22T05:35:59.520Z,7.00
2023-03-22T05:39:10.985Z,7.20
2023-03-22T05:42:19.424Z,7.30
2023-03-22T05:45:28.018Z,7.20
2023-03-22T05:48:45.045Z,6.90
2023-03-22T05:51:56.003Z,6.70
2023-03-22T05:55:08.219Z,6.50
2023-03-22T05:58:19.374Z,6.50
2023-03-22T06:01:30.143Z,6.50
2023-03-22T06:04:53.394Z,6.40
2023-03-22T06:08:04.004Z,6.40
2023-03-22T06:11:12.701Z,6.40
2023-03-22T06:14:21.334Z,6.40
2023-03-22T06:17:43.040Z,6.40
2023-03-22T06:20:54.277Z,6.40
2023-03-22T06:24:04.433Z,6.40
2023-03-22T06:27:13.012Z,6.40
2023-03-22T06:30:22.495Z,6.40
2023-03-22T06:33:46.575Z,6.40
2023-03-22T06:37:07.090Z,6.40
2023-03-22T06:40:20.370Z,6.40
2023-03-22T06:43:28.904Z,6.40
2023-03-22T06:46:49.409Z,6.30
2023-03-22T06:50:30.444Z,6.40
2023-03-22T06:53:49.614Z,6.40
2023-03-22T06:56:59.511Z,6.40
2023-03-22T07:00:10.096Z,6.40
2023-03-22T07:03:18.369Z,6.40
2023-03-22T07:06:32.709Z,6.40
2023-03-22T07:09:41.581Z,6.40
2023-03-22T07:12:51.540Z,6.40
2023-03-22T07:16:03.312Z,6.40
2023-03-22T07:19:24.471Z,6.40
2023-03-22T07:22:33.130Z,6.40
2023-03-22T07:25:41.647Z,6.40
2023-03-22T07:29:02.601Z,6.30
2023-03-22T07:32:14.199Z,6.30
2023-03-22T07:35:46.509Z,6.30
2023-03-22T07:38:55.004Z,6.40
2023-03-22T07:42:09.586Z,6.50
2023-03-22T07:45:20.398Z,6.50
2023-03-22T07:48:51.491Z,6.50
2023-03-22T07:52:20.229Z,6.50
2023-03-22T07:55:29.482Z,6.60
2023-03-22T07:58:37.940Z,6.60
2023-03-22T08:01:47.861Z,6.60
2023-03-22T08:05:07.367Z,6.60
2023-03-22T08:08:19.191Z,6.70
2023-03-22T08:11:28.578Z,6.70
2023-03-22T08:14:37.673Z,6.60
2023-03-22T08:17:52.481Z,6.60
2023-03-22T08:21:11.487Z,6.60
2023-03-22T08:24:20.381Z,6.60
2023-03-22T08:27:38.648Z,6.60
2023-03-22T08:30:49.166Z,6.70
2023-03-22T08:34:00.134Z,6.60
2023-03-22T08:37:09.838Z,6.70
2023-03-22T08:40:18.393Z,6.80
2023-03-22T08:43:31.723Z,6.80
2023-03-22T08:46:40.328Z,6.80
2023-03-22T08:49:50.080Z,6.80
2023-03-22T08:53:05.717Z,6.80
2023-03-22T08:56:17.170Z,6.80
2023-03-22T08:59:37.057Z,6.80
2023-03-22T09:03:05.932Z,6.90
2023-03-22T09:06:16.400Z,6.90
2023-03-22T09:09:25.370Z,6.90
2023-03-22T09:12:35.797Z,6.90
2023-03-22T09:15:45.936Z,6.90
2023-03-22T09:19:03.419Z,6.90
2023-03-22T09:22:14.284Z,6.90
2023-03-22T09:25:28.249Z,7.00
2023-03-22T09:28:37.475Z,7.30
2023-03-22T09:31:49.485Z,7.50
2023-03-22T09:35:01.871Z,7.50
2023-03-22T09:38:21.143Z,7.50
2023-03-22T09:41:37.939Z,7.40
2023-03-22T09:44:47.717Z,7.40
2023-03-22T09:48:02.085Z,7.40
2023-03-22T09:51:23.167Z,7.30
2023-03-22T09:54:35.495Z,7.30
2023-03-22T09:57:43.814Z,7.30
2023-03-22T10:00:57.697Z,7.40
2023-03-22T10:04:27.206Z,7.50
2023-03-22T10:07:45.429Z,7.60
2023-03-22T10:10:55.359Z,7.70
2023-03-22T10:14:23.583Z,7.70
2023-03-22T10:17:32.798Z,7.70
2023-03-22T10:20:45.332Z,7.70
2023-03-22T10:23:57.614Z,7.70
2023-03-22T10:27:16.083Z,7.60
2023-03-22T10:30:27.091Z,7.60
2023-03-22T10:33:50.078Z,7.40
2023-03-22T10:37:02.677Z,7.20
2023-03-22T10:40:18.247Z,7.20
2023-03-22T10:43:33.862Z,7.50
2023-03-22T10:46:43.757Z,7.60
2023-03-22T10:49:55.940Z,7.70
2023-03-22T10:53:06.942Z,7.80
2023-03-22T10:56:18.820Z,7.80
2023-03-22T10:59:48.600Z,7.90
2023-03-22T11:03:01.707Z,7.90
2023-03-22T11:06:12.497Z,7.50
2023-03-22T11:09:23.577Z,7.40
2023-03-22T11:12:31.972Z,7.40
2023-03-22T11:15:43.564Z,7.40
2023-03-22T11:18:52.223Z,7.50
2023-03-22T11:22:01.350Z,7.50
2023-03-22T11:25:16.856Z,7.40
2023-03-22T11:28:29.582Z,7.30
2023-03-22T11:32:01.366Z,7.20
2023-03-22T11:35:14.960Z,7.20
2023-03-22T11:38:29.590Z,7.20
2023-03-22T11:41:40.513Z,7.30
2023-03-22T11:44:49.397Z,7.60
2023-03-22T11:48:03.672Z,7.70
2023-03-22T11:51:14.986Z,7.40
2023-03-22T11:54:30.550Z,7.30
2023-03-22T11:57:39.056Z,7.30
2023-03-22T12:00:52.363Z,7.20
2023-03-22T12:04:06.727Z,7.20
2023-03-22T12:07:17.343Z,7.10
2023-03-22T12:10:31.001Z,7.20
2023-03-22T12:13:50.123Z,7.20
2023-03-22T12:17:02.785Z,7.00
2023-03-22T12:20:21.526Z,6.90
2023-03-22T12:23:31.788Z,6.90
2023-03-22T12:26:40.804Z,6.90
2023-03-22T12:29:55.256Z,7.00
2023-03-22T12:33:06.948Z,6.90
2023-03-22T12:36:20.577Z,6.90
2023-03-22T12:39:33.576Z,7.00
2023-03-22T12:42:54.148Z,6.90
2023-03-22T12:46:06.518Z,7.00
2023-03-22T12:49:22.512Z,7.00
2023-03-22T12:52:45.445Z,6.90
2023-03-22T12:55:55.589Z,6.90
2023-03-22T12:59:06.598Z,6.90
2023-03-22T13:02:18.408Z,6.90
2023-03-22T13:05:30.890Z,6.90
2023-03-22T13:09:16.994Z,6.90
2023-03-22T13:12:34.432Z,6.90
2023-03-22T13:15:59.236Z,6.90
2023-03-22T13:19:29.990Z,6.90
2023-03-22T13:23:10.589Z,6.90
2023-03-22T13:26:21.876Z,6.90
2023-03-22T13:29:37.506Z,6.90
2023-03-22T13:32:54.626Z,6.80
2023-03-22T13:36:09.250Z,6.90
2023-03-22T13:39:18.546Z,6.90
2023-03-22T13:42:36.803Z,6.90
2023-03-22T13:46:07.883Z,6.90
2023-03-22T13:49:32.783Z,6.90
2023-03-22T13:52:45.082Z,6.90
2023-03-22T13:56:03.610Z,6.90
2023-03-22T13:59:15.549Z,6.90
2023-03-22T14:02:29.279Z,6.90
2023-03-22T14:05:39.602Z,6.90
2023-03-22T14:08:51.864Z,6.90
2023-03-22T14:12:08.554Z,6.90
2023-03-22T14:15:20.832Z,6.90
2023-03-22T14:18:31.775Z,6.90
2023-03-22T14:21:43.643Z,6.90
